Tuesday, January 22, 2019, 4:56 PM EST
Back to Local

KAUG, Augusta State Airport

Location: Augusta, ME, United States Lat: 44.317
Local Time: 4:56 PM EST (21:56 GMT) Lon: -69.8
Time Zone: US/Eastern Elev: 351 ft

Show me the last for .
Show Coded

Time T Td Feel RH Dir Speed Gust Alt SLP Vis Weather Sky Remarks
2019-01-22 15:53 18 -9 8 28 280° 8 - 30.42 30.44 10 CLR None
2019-01-22 14:53 19 -10 2 26 280° 14 22 30.39 30.41 10 CLR None
2019-01-22 13:53 22 -11 5 22 290° 9 25 30.35 30.38 10 CLR None
2019-01-22 12:53 21 -13 4 20 300° 17 25 30.31 30.34 10 CLR 6-hr Min Temp (1pm): 1.0°F
6-hr Max Temp (1pm): 21.0°F
2019-01-22 11:53 17 -11 7 27 300° 8 - 30.32 30.35 10 CLR None
2019-01-22 10:53 13 -12 -4 31 300° 12 18 30.33 30.36 10 CLR None
2019-01-22 09:53 9 -12 -9 37 260° 9 17 30.31 30.33 10 CLR None
2019-01-22 08:53 6 -13 -13 40 300° 10 18 30.27 30.29 10 CLR None
2019-01-22 07:53 4 -14 -18 41 300° 14 22 30.22 30.25 10 CLR None
2019-01-22 06:53 2 -14 -12 45 310° 8 - 30.18 30.21 10 CLR 6-hr Min Temp (7am): 1.0°F
6-hr Max Temp (7am): 3.0°F
2019-01-22 05:53 2 -15 -19 43 290° 13 20 30.16 30.19 10 CLR None
2019-01-22 04:53 1 -14 -20 47 310° 9 18 30.12 30.15 10 CLR None
2019-01-22 03:53 2 -13 -21 48 310° 15 23 30.08 30.11 10 CLR None
2019-01-22 02:53 2 -11 -14 53 300° 10 - 30.05 30.08 10 CLR None
2019-01-22 01:53 3 -10 -8 53 300° 6 - 30.01 30.04 10 OVC100 None
2019-01-22 00:53 3 -9 -13 56 310° 12 - 29.98 30.00 10 FEW060 FEW090 6-hr Precip Total (1am): 0.00"
6-hr Min Temp (1am): -0.0°F
6-hr Max Temp (1am): 5.0°F
2019-01-21 23:53 5 -8 -20 54 300° 18 32 29.94 29.97 10 BKN085 OVC110 Peak wind: 32 mph (28 kts) from 310° at 51 min
1-hr Precip Total: Trace
24-hr Min Temp (12am): -0.0°F
24-hr Max Temp (12am): 10.9°F
2019-01-21 23:02 4 -4 -16 68 310° 15 18 29.92 - 4 -SN OVC037 1-hr Precip Total: Trace
2019-01-21 22:53 4 -4 -18 68 300° 10 23 29.92 29.94 2 -SN OVC035 1-hr Precip Total: Trace
2019-01-21 22:43 4 -4 -17 68 310° 9 20 29.91 - 2 -SN OVC037 1-hr Precip Total: Trace
2019-01-21 21:53 3 -6 -18 65 300° 9 20 29.89 29.91 6 HZ FEW070 OVC090 1-hr Precip Total: Trace
6-hr Precip Total (10pm): 0.00"
2019-01-21 20:53 2 -7 -19 65 300° 10 18 29.86 29.89 4 -SN BKN048 OVC080 1-hr Precip Total: Trace
2019-01-21 19:53 1 -10 -21 58 310° 13 21 29.84 29.87 8 BKN050 BKN075 OVC090 1-hr Precip Total: Trace
2019-01-21 18:53 0 -10 -22 61 300° 14 20 29.83 29.86 4 -SN BKN050 OVC080 1-hr Precip Total: Trace
6-hr Precip Total (7pm): 0.00"
6-hr Min Temp (7pm): -0.0°F
6-hr Max Temp (7pm): 3.9°F
2019-01-21 17:53 0 -12 -23 56 310° 15 22 29.81 29.83 9 OVC085 None

Support USWX by starting your Amazon purchase here.